createdAt,value
2022-09-02T02:00:52.550Z,87.59
2022-09-02T02:01:13.425Z,87.59
2022-09-02T02:01:34.902Z,87.59
2022-09-02T02:01:56.425Z,87.73
2022-09-02T02:02:17.363Z,87.59
2022-09-02T02:02:37.962Z,87.49
2022-09-02T02:02:58.356Z,87.38
2022-09-02T02:03:19.486Z,87.49
2022-09-02T02:03:40.038Z,87.53
2022-09-02T02:04:00.624Z,87.49
2022-09-02T02:04:21.251Z,87.59
2022-09-02T02:04:41.801Z,87.59
2022-09-02T02:05:02.385Z,87.79
2022-09-02T02:05:22.964Z,87.79
2022-09-02T02:05:43.554Z,87.70
2022-09-02T02:06:04.138Z,87.79
2022-09-02T02:06:24.718Z,87.70
2022-09-02T02:06:45.300Z,87.70
2022-09-02T02:07:05.880Z,87.79
2022-09-02T02:07:26.464Z,87.90
2022-09-02T02:07:47.045Z,87.90
2022-09-02T02:08:07.449Z,88.00
2022-09-02T02:08:28.033Z,87.90
2022-09-02T02:08:48.619Z,88.00
2022-09-02T02:09:09.197Z,87.79
2022-09-02T02:09:29.788Z,87.79
2022-09-02T02:09:50.359Z,87.70
2022-09-02T02:10:10.943Z,87.59
2022-09-02T02:10:31.519Z,87.49
2022-09-02T02:10:52.110Z,87.29
2022-09-02T02:11:12.689Z,87.18
2022-09-02T02:11:33.272Z,87.29
2022-09-02T02:11:53.857Z,87.38
2022-09-02T02:12:14.452Z,87.29
2022-09-02T02:12:35.028Z,87.29
2022-09-02T02:12:55.625Z,87.49
2022-09-02T02:13:16.222Z,87.70
2022-09-02T02:13:36.804Z,87.70
2022-09-02T02:13:57.391Z,87.70
2022-09-02T02:14:24.652Z,87.70
2022-09-02T02:14:40.137Z,87.38
2022-09-02T02:15:00.720Z,87.29
2022-09-02T02:15:21.299Z,87.29
2022-09-02T02:15:41.885Z,87.18
2022-09-02T02:16:02.519Z,87.29
2022-09-02T02:16:23.154Z,87.29
2022-09-02T02:16:43.727Z,87.18
2022-09-02T02:17:04.307Z,87.29
2022-09-02T02:17:24.894Z,87.29
2022-09-02T02:17:45.474Z,87.08
2022-09-02T02:18:06.074Z,86.88
2022-09-02T02:18:26.653Z,86.98
2022-09-02T02:18:47.235Z,87.18
2022-09-02T02:19:07.819Z,87.18
2022-09-02T02:19:28.399Z,87.29
2022-09-02T02:19:48.985Z,87.29
2022-09-02T02:20:09.566Z,87.29
2022-09-02T02:20:30.146Z,87.08
2022-09-02T02:20:50.730Z,87.18
2022-09-02T02:21:11.123Z,87.18
2022-09-02T02:21:31.704Z,87.18
2022-09-02T02:21:52.285Z,87.38
2022-09-02T02:22:13.039Z,87.18
2022-09-02T02:22:33.620Z,87.38
2022-09-02T02:22:54.200Z,87.70
2022-09-02T02:23:14.721Z,87.70
2022-09-02T02:23:35.315Z,87.49
2022-09-02T02:23:55.904Z,87.38
2022-09-02T02:24:16.482Z,87.49
2022-09-02T02:24:37.064Z,87.53
2022-09-02T02:24:57.649Z,87.53
2022-09-02T02:25:18.232Z,87.43
2022-09-02T02:25:38.830Z,87.32
2022-09-02T02:25:59.416Z,87.32
2022-09-02T02:26:20.484Z,87.43
2022-09-02T02:26:41.105Z,87.63
2022-09-02T02:27:01.502Z,87.43
2022-09-02T02:27:22.085Z,87.32
2022-09-02T02:27:43.788Z,87.12
2022-09-02T02:28:04.475Z,87.23
2022-09-02T02:28:26.168Z,87.32
2022-09-02T02:28:46.753Z,87.53
2022-09-02T02:29:07.336Z,87.73
2022-09-02T02:29:27.920Z,87.84
2022-09-02T02:29:48.502Z,87.94
2022-09-02T02:30:09.096Z,88.04
2022-09-02T02:30:29.680Z,87.94
2022-09-02T02:30:50.268Z,87.73
2022-09-02T02:31:10.887Z,87.73
2022-09-02T02:31:31.509Z,87.73
2022-09-02T02:31:52.098Z,87.73
2022-09-02T02:32:12.681Z,87.63
2022-09-02T02:32:33.654Z,87.84
2022-09-02T02:32:54.232Z,87.84
2022-09-02T02:33:14.886Z,88.04
2022-09-02T02:33:36.233Z,88.04
2022-09-02T02:33:57.028Z,87.94
2022-09-02T02:34:17.609Z,87.94
2022-09-02T02:34:38.189Z,87.84
2022-09-02T02:34:58.777Z,87.84
2022-09-02T02:35:19.361Z,87.84
2022-09-02T02:35:39.756Z,87.84
2022-09-02T02:36:00.338Z,87.94
2022-09-02T02:36:20.923Z,88.14
2022-09-02T02:36:41.505Z,88.24
2022-09-02T02:37:02.088Z,88.04
2022-09-02T02:37:25.492Z,88.14
2022-09-02T02:37:46.255Z,88.04
2022-09-02T02:38:06.854Z,87.94
2022-09-02T02:38:27.435Z,88.04
2022-09-02T02:38:48.018Z,88.14
2022-09-02T02:39:08.604Z,88.24
2022-09-02T02:39:29.182Z,88.55
2022-09-02T02:39:49.765Z,88.55
2022-09-02T02:40:10.424Z,88.24
2022-09-02T02:40:31.083Z,87.94
2022-09-02T02:40:51.992Z,87.63
2022-09-02T02:41:12.582Z,87.63
2022-09-02T02:41:33.168Z,87.73
2022-09-02T02:41:53.749Z,87.73
2022-09-02T02:42:14.332Z,87.73
2022-09-02T02:42:34.910Z,87.73
2022-09-02T02:42:55.498Z,87.73
2022-09-02T02:43:15.909Z,87.94
2022-09-02T02:43:36.493Z,88.04
2022-09-02T02:43:57.068Z,88.14
2022-09-02T02:44:17.649Z,88.35
2022-09-02T02:44:38.231Z,88.55
2022-09-02T02:44:58.813Z,88.45
2022-09-02T02:45:19.405Z,88.49
2022-09-02T02:45:39.985Z,88.55
2022-09-02T02:46:00.591Z,88.45
2022-09-02T02:46:21.224Z,88.39
2022-09-02T02:46:41.886Z,88.59
2022-09-02T02:47:02.504Z,88.65
2022-09-02T02:47:23.041Z,88.70
2022-09-02T02:47:43.617Z,88.70
2022-09-02T02:48:04.027Z,88.59
2022-09-02T02:48:24.609Z,88.49
2022-09-02T02:48:45.196Z,88.49
2022-09-02T02:49:05.585Z,88.59
2022-09-02T02:49:26.176Z,88.39
2022-09-02T02:49:46.755Z,88.59
2022-09-02T02:50:07.339Z,88.70
2022-09-02T02:50:27.925Z,88.79
2022-09-02T02:50:48.506Z,88.59
2022-09-02T02:51:09.095Z,88.70
2022-09-02T02:51:29.669Z,88.90
2022-09-02T02:51:50.257Z,88.90
2022-09-02T02:52:10.840Z,88.70
2022-09-02T02:52:31.427Z,88.59
2022-09-02T02:52:52.007Z,88.49
2022-09-02T02:53:14.045Z,88.49
2022-09-02T02:53:35.545Z,88.18
2022-09-02T02:53:58.874Z,88.08
2022-09-02T02:54:19.674Z,88.18
2022-09-02T02:54:40.256Z,88.29
2022-09-02T02:55:00.855Z,88.39
2022-09-02T02:55:21.443Z,88.49
2022-09-02T02:55:41.838Z,88.59
2022-09-02T02:56:02.432Z,88.39
2022-09-02T02:56:23.012Z,88.39
2022-09-02T02:56:43.590Z,88.29
2022-09-02T02:57:04.177Z,88.18
2022-09-02T02:57:24.754Z,88.18
2022-09-02T02:57:45.335Z,88.08
2022-09-02T02:58:05.929Z,88.29
2022-09-02T02:58:26.525Z,88.18
2022-09-02T02:58:47.100Z,87.98
2022-09-02T02:59:07.498Z,87.88
2022-09-02T02:59:28.081Z,87.88
2022-09-02T02:59:48.665Z,87.88
2022-09-02T03:00:09.252Z,87.88
2022-09-02T03:00:29.832Z,87.88
2022-09-02T03:00:50.416Z,87.88
2022-09-02T03:01:11.003Z,87.88
2022-09-02T03:01:31.748Z,87.98
2022-09-02T03:01:52.512Z,88.18
2022-09-02T03:02:13.283Z,88.39
2022-09-02T03:02:34.033Z,88.39
2022-09-02T03:02:54.713Z,88.49
2022-09-02T03:03:15.319Z,88.39
2022-09-02T03:03:35.718Z,88.18
2022-09-02T03:03:56.305Z,88.18
2022-09-02T03:04:16.886Z,87.98
2022-09-02T03:04:37.477Z,87.98
2022-09-02T03:04:58.057Z,88.18
2022-09-02T03:05:18.643Z,88.39
2022-09-02T03:05:39.225Z,88.29
2022-09-02T03:05:59.807Z,88.18
2022-09-02T03:06:22.908Z,88.08
2022-09-02T03:06:40.798Z,87.98
2022-09-02T03:07:01.376Z,87.98
2022-09-02T03:07:21.955Z,87.88
2022-09-02T03:07:42.536Z,87.88
2022-09-02T03:08:03.133Z,87.98
2022-09-02T03:08:23.715Z,88.18
2022-09-02T03:09:31.602Z,88.08
2022-09-02T03:09:52.181Z,87.98
2022-09-02T03:10:12.576Z,88.08
2022-09-02T03:10:33.161Z,88.08
2022-09-02T03:10:53.751Z,87.88
2022-09-02T03:11:14.331Z,87.82
2022-09-02T03:11:34.732Z,87.82
2022-09-02T03:11:55.312Z,87.92
2022-09-02T03:12:15.898Z,88.02
2022-09-02T03:12:37.964Z,87.88
2022-09-02T03:12:58.538Z,87.82
2022-09-02T03:13:19.130Z,87.82
2022-09-02T03:13:39.714Z,87.82
2022-09-02T03:14:00.295Z,87.92
2022-09-02T03:15:08.180Z,88.12
2022-09-02T03:15:28.766Z,88.12
2022-09-02T03:15:49.403Z,88.33
2022-09-02T03:16:10.005Z,88.33
2022-09-02T03:16:30.625Z,88.43
2022-09-02T03:16:51.189Z,88.23
2022-09-02T03:17:11.770Z,88.02
2022-09-02T03:17:32.354Z,87.82
2022-09-02T03:17:52.935Z,87.61
2022-09-02T03:18:13.340Z,87.71
2022-09-02T03:18:33.921Z,87.71
2022-09-02T03:18:54.507Z,87.71
2022-09-02T03:19:15.085Z,87.71
2022-09-02T03:19:35.666Z,87.71
2022-09-02T03:19:56.251Z,87.82
2022-09-02T03:20:16.863Z,87.82
2022-09-02T03:20:37.448Z,87.92
2022-09-02T03:20:58.042Z,87.92
2022-09-02T03:21:18.612Z,87.92
2022-09-02T03:21:39.448Z,87.92
2022-09-02T03:22:00.027Z,87.92
2022-09-02T03:22:20.442Z,87.92
2022-09-02T03:22:41.008Z,87.92
2022-09-02T03:23:01.598Z,87.92
2022-09-02T03:23:22.305Z,88.02
2022-09-02T03:24:31.505Z,87.92
2022-09-02T03:24:52.090Z,88.26
2022-09-02T03:25:12.685Z,88.47
2022-09-02T03:25:36.089Z,88.47
2022-09-02T03:25:58.518Z,88.68
2022-09-02T03:26:19.091Z,88.68
2022-09-02T03:26:39.795Z,88.57
2022-09-02T03:27:00.379Z,88.57
2022-09-02T03:27:20.965Z,88.47
2022-09-02T03:27:41.551Z,88.47
2022-09-02T03:28:02.156Z,88.57
2022-09-02T03:28:22.736Z,88.68
2022-09-02T03:28:43.322Z,88.88
2022-09-02T03:29:03.906Z,88.88
2022-09-02T03:29:24.489Z,88.68
2022-09-02T03:29:44.890Z,88.78
2022-09-02T03:30:05.473Z,88.78
2022-09-02T03:30:26.054Z,88.98
2022-09-02T03:30:46.638Z,89.09
2022-09-02T03:31:07.292Z,89.09
2022-09-02T03:31:27.936Z,89.09
2022-09-02T03:31:48.488Z,88.88
2022-09-02T03:32:09.067Z,88.68
2022-09-02T03:32:30.568Z,88.57
2022-09-02T03:32:51.259Z,88.47
2022-09-02T03:33:11.706Z,88.57
2022-09-02T03:33:32.283Z,88.68
2022-09-02T03:33:52.867Z,88.68
2022-09-02T03:34:13.447Z,88.57
2022-09-02T03:34:34.027Z,88.68
2022-09-02T03:34:54.611Z,88.88
2022-09-02T03:35:15.198Z,89.09
2022-09-02T03:35:35.785Z,89.18
2022-09-02T03:35:56.372Z,89.39
2022-09-02T03:36:16.948Z,89.29
2022-09-02T03:36:37.528Z,89.29
2022-09-02T03:36:58.110Z,89.50
2022-09-02T03:37:18.694Z,89.70
2022-09-02T03:37:39.286Z,89.80
2022-09-02T03:37:59.681Z,89.80
2022-09-02T03:38:20.288Z,89.80
2022-09-02T03:38:40.871Z,89.90
2022-09-02T03:39:01.479Z,89.70
2022-09-02T03:39:22.075Z,89.59
2022-09-02T03:39:42.467Z,89.80
2022-09-02T03:40:03.050Z,89.70
2022-09-02T03:40:23.667Z,89.29
2022-09-02T03:40:44.430Z,89.18
2022-09-02T03:41:05.039Z,89.18
2022-09-02T03:41:25.620Z,89.09
2022-09-02T03:41:46.205Z,88.98
2022-09-02T03:42:06.789Z,89.09
2022-09-02T03:42:27.368Z,89.18
2022-09-02T03:42:47.951Z,89.29
2022-09-02T03:43:08.545Z,89.29
2022-09-02T03:43:29.126Z,89.39
2022-09-02T03:43:49.712Z,89.33
2022-09-02T03:44:57.594Z,89.39
2022-09-02T03:45:18.176Z,89.53
2022-09-02T03:45:38.840Z,89.53
2022-09-02T03:45:59.193Z,89.64
2022-09-02T03:46:19.629Z,89.43
2022-09-02T03:46:40.243Z,89.43
2022-09-02T03:47:48.123Z,89.53
2022-09-02T03:48:08.718Z,89.64
2022-09-02T03:48:29.513Z,89.74
2022-09-02T03:48:50.097Z,89.74
2022-09-02T03:49:10.676Z,89.84
2022-09-02T03:49:31.457Z,89.84
2022-09-02T03:49:52.040Z,89.94
2022-09-02T03:50:12.644Z,90.15
2022-09-02T03:50:33.223Z,90.05
2022-09-02T03:50:53.612Z,89.94
2022-09-02T03:51:14.201Z,90.05
2022-09-02T03:51:34.784Z,89.94
2022-09-02T03:51:55.368Z,89.94
2022-09-02T03:52:15.979Z,89.74
2022-09-02T03:52:36.561Z,89.64
2022-09-02T03:52:57.147Z,89.43
2022-09-02T03:53:20.135Z,89.33
2022-09-02T03:53:41.023Z,89.23
2022-09-02T03:54:01.602Z,89.23
2022-09-02T03:54:22.184Z,89.23
2022-09-02T03:54:42.768Z,89.23
2022-09-02T03:55:03.350Z,89.33
2022-09-02T03:55:24.421Z,89.43
2022-09-02T03:55:45.006Z,89.43
2022-09-02T03:56:05.587Z,89.33
2022-09-02T03:56:26.174Z,89.12
2022-09-02T03:56:46.760Z,89.12
2022-09-02T03:57:07.343Z,89.12
2022-09-02T03:57:27.921Z,89.03
2022-09-02T03:57:50.225Z,89.03
2022-09-02T03:58:10.979Z,89.03
2022-09-02T03:58:31.568Z,89.12
2022-09-02T03:58:52.748Z,89.23
2022-09-02T03:59:13.341Z,89.43
2022-09-02T03:59:33.917Z,89.43
2022-09-02T03:59:54.499Z,89.33
2022-09-02T04:00:15.081Z,89.33
2022-09-02T04:00:35.866Z,89.23
2022-09-02T04:00:56.447Z,89.23
2022-09-02T04:01:17.156Z,89.12
2022-09-02T04:01:37.809Z,89.03
2022-09-02T04:01:58.567Z,89.03
2022-09-02T04:02:19.382Z,89.12
2022-09-02T04:02:40.161Z,89.43
2022-09-02T04:03:00.847Z,89.53
2022-09-02T04:03:21.535Z,89.53
2022-09-02T04:03:41.803Z,89.74
2022-09-02T04:04:02.205Z,89.74
2022-09-02T04:04:23.027Z,89.64
2022-09-02T04:04:43.611Z,89.53
2022-09-02T04:05:04.037Z,89.53
2022-09-02T04:05:24.596Z,89.53
2022-09-02T04:05:45.185Z,89.64
2022-09-02T04:06:05.768Z,89.84
2022-09-02T04:06:26.257Z,89.84
2022-09-02T04:06:46.575Z,89.94
2022-09-02T04:07:07.152Z,89.94
2022-09-02T04:07:27.735Z,89.94
2022-09-02T04:07:48.319Z,89.84
2022-09-02T04:08:08.909Z,89.74
2022-09-02T04:08:29.517Z,89.64
2022-09-02T04:08:50.104Z,89.74
2022-09-02T04:09:10.692Z,90.05
2022-09-02T04:09:31.297Z,90.25
2022-09-02T04:09:51.907Z,90.15
2022-09-02T04:10:12.490Z,90.05
2022-09-02T04:10:33.077Z,89.94
2022-09-02T04:10:53.657Z,90.05
2022-09-02T04:11:14.265Z,90.05
2022-09-02T04:11:34.848Z,90.05
2022-09-02T04:11:55.427Z,89.94
2022-09-02T04:12:16.009Z,89.84
2022-09-02T04:12:36.589Z,89.94
2022-09-02T04:12:57.177Z,89.84
2022-09-02T04:13:17.822Z,89.74
2022-09-02T04:13:38.397Z,89.64
2022-09-02T04:13:58.979Z,89.43
2022-09-02T04:14:19.559Z,89.33
2022-09-02T04:14:40.150Z,89.23
2022-09-02T04:15:00.737Z,89.12
2022-09-02T04:15:21.319Z,89.12
2022-09-02T04:15:41.953Z,89.12
2022-09-02T04:16:02.528Z,89.23
2022-09-02T04:16:22.932Z,89.33
2022-09-02T04:16:43.551Z,89.53
2022-09-02T04:17:04.149Z,89.74
2022-09-02T04:17:24.731Z,89.64
2022-09-02T04:17:45.316Z,89.53
2022-09-02T04:18:05.928Z,89.53
2022-09-02T04:18:26.516Z,89.43
2022-09-02T04:18:48.612Z,89.33
2022-09-02T04:19:09.193Z,89.43
2022-09-02T04:19:29.776Z,89.43
2022-09-02T04:19:50.386Z,89.53
2022-09-02T04:20:10.788Z,89.74
2022-09-02T04:20:31.370Z,89.64
2022-09-02T04:20:51.963Z,89.53
2022-09-02T04:21:12.548Z,89.43
2022-09-02T04:21:33.135Z,89.53
2022-09-02T04:21:53.708Z,89.53
2022-09-02T04:22:14.291Z,89.64
2022-09-02T04:22:34.876Z,89.53
2022-09-02T04:22:55.476Z,89.53
2022-09-02T04:23:16.086Z,89.64
2022-09-02T04:23:36.465Z,89.64
2022-09-02T04:23:57.053Z,89.74
2022-09-02T04:24:17.649Z,89.84
2022-09-02T04:24:38.223Z,89.94
2022-09-02T04:24:58.808Z,90.05
2022-09-02T04:25:19.381Z,90.15
2022-09-02T04:25:39.788Z,90.05
2022-09-02T04:26:00.378Z,90.05
2022-09-02T04:26:20.957Z,89.94
2022-09-02T04:26:44.934Z,89.84
2022-09-02T04:27:05.967Z,89.74
2022-09-02T04:27:26.547Z,89.78
2022-09-02T04:27:46.945Z,89.68
2022-09-02T04:28:07.546Z,89.68
2022-09-02T04:28:28.129Z,89.53
2022-09-02T04:28:48.709Z,89.47
2022-09-02T04:29:09.288Z,89.43
2022-09-02T04:29:29.868Z,89.64
2022-09-02T04:29:50.447Z,89.89
2022-09-02T04:30:11.035Z,89.89
2022-09-02T04:30:31.621Z,89.68
2022-09-02T04:30:52.278Z,89.68
2022-09-02T04:31:12.907Z,89.58
2022-09-02T04:31:33.686Z,89.58
2022-09-02T04:31:54.317Z,89.58
2022-09-02T04:32:14.906Z,89.58
2022-09-02T04:32:40.284Z,89.78
2022-09-02T04:32:55.932Z,89.89
2022-09-02T04:33:16.590Z,89.89
2022-09-02T04:33:37.172Z,89.98
2022-09-02T04:33:57.761Z,90.09
2022-09-02T04:34:18.362Z,90.09
2022-09-02T04:34:38.945Z,90.19
2022-09-02T04:34:59.528Z,90.30
2022-09-02T04:35:20.122Z,90.19
2022-09-02T04:35:40.706Z,90.09
2022-09-02T04:36:01.304Z,89.98
2022-09-02T04:36:25.467Z,89.98
2022-09-02T04:36:49.568Z,89.89
2022-09-02T04:37:10.168Z,89.78
2022-09-02T04:37:30.753Z,89.78
2022-09-02T04:37:51.335Z,89.68
2022-09-02T04:38:11.936Z,89.58
2022-09-02T04:38:32.522Z,89.47
2022-09-02T04:38:52.917Z,89.37
2022-09-02T04:39:13.501Z,89.27
2022-09-02T04:39:34.094Z,89.27
2022-09-02T04:39:54.671Z,89.37
2022-09-02T04:40:15.287Z,89.58
2022-09-02T04:40:35.888Z,89.68
2022-09-02T04:40:56.435Z,89.68
2022-09-02T04:41:17.018Z,89.58
2022-09-02T04:41:37.606Z,89.58
2022-09-02T04:41:58.184Z,89.68
2022-09-02T04:42:18.765Z,89.47
2022-09-02T04:42:39.350Z,89.37
2022-09-02T04:42:59.931Z,89.37
2022-09-02T04:43:20.533Z,89.58
2022-09-02T04:43:41.115Z,89.78
2022-09-02T04:44:01.701Z,89.78
2022-09-02T04:44:22.280Z,89.89
2022-09-02T04:44:42.863Z,89.98
2022-09-02T04:45:03.447Z,90.09
2022-09-02T04:45:29.119Z,89.98
2022-09-02T04:45:44.501Z,90.09
2022-09-02T04:46:05.193Z,90.19
2022-09-02T04:46:34.716Z,90.19
2022-09-02T04:46:46.199Z,90.30
2022-09-02T04:47:06.780Z,90.39
2022-09-02T04:47:27.360Z,90.60
2022-09-02T04:47:47.941Z,90.50
2022-09-02T04:48:08.538Z,90.39
2022-09-02T04:48:29.124Z,90.39
2022-09-02T04:48:49.707Z,90.39
2022-09-02T04:49:10.292Z,90.30
2022-09-02T04:49:30.878Z,90.30
2022-09-02T04:49:51.460Z,90.19
2022-09-02T04:50:12.043Z,90.19
2022-09-02T04:50:32.440Z,90.19
2022-09-02T04:50:53.024Z,90.30
2022-09-02T04:51:13.608Z,90.30
2022-09-02T04:51:34.503Z,90.50
2022-09-02T04:51:54.898Z,90.50
2022-09-02T04:52:15.479Z,90.39
2022-09-02T04:52:35.873Z,90.39
2022-09-02T04:52:56.457Z,90.39
2022-09-02T04:53:17.144Z,90.39
2022-09-02T04:53:37.687Z,90.50
2022-09-02T04:53:58.264Z,90.39
2022-09-02T04:54:18.852Z,90.30
2022-09-02T04:54:39.435Z,90.19
2022-09-02T04:55:00.017Z,89.89
2022-09-02T04:55:20.598Z,89.68
2022-09-02T04:55:41.196Z,89.89
2022-09-02T04:56:01.772Z,90.09
2022-09-02T04:56:22.353Z,90.09
2022-09-02T04:56:42.937Z,90.19
2022-09-02T04:57:03.523Z,90.19
2022-09-02T04:57:24.103Z,90.19
2022-09-02T04:57:44.688Z,90.19
2022-09-02T04:58:05.282Z,90.19
2022-09-02T04:58:25.866Z,90.19
2022-09-02T04:58:46.449Z,90.09
2022-09-02T04:59:07.034Z,90.09
2022-09-02T04:59:27.614Z,90.30
2022-09-02T04:59:48.196Z,90.30
2022-09-02T05:00:08.780Z,90.30
2022-09-02T05:00:29.366Z,90.30
2022-09-02T05:00:49.947Z,90.39
2022-09-02T05:01:10.634Z,90.60
2022-09-02T05:01:31.269Z,90.60
2022-09-02T05:01:51.988Z,90.70
2022-09-02T05:02:12.793Z,90.81
2022-09-02T05:02:33.481Z,90.91
2022-09-02T05:02:54.259Z,90.81
2022-09-02T05:03:14.881Z,90.60
2022-09-02T05:03:35.466Z,90.50
2022-09-02T05:03:56.056Z,90.39
2022-09-02T05:04:16.626Z,90.60
2022-09-02T05:04:37.208Z,90.70
2022-09-02T05:04:57.789Z,90.70
2022-09-02T05:05:18.369Z,90.60
2022-09-02T05:05:38.953Z,90.50
2022-09-02T05:05:59.538Z,90.50
2022-09-02T05:06:20.124Z,90.50
2022-09-02T05:06:44.380Z,90.50
2022-09-02T05:07:05.289Z,90.50
2022-09-02T05:07:25.867Z,90.70
2022-09-02T05:07:46.455Z,90.70
2022-09-02T05:08:07.052Z,90.70
2022-09-02T05:08:27.633Z,90.70
2022-09-02T05:08:48.215Z,90.70
2022-09-02T05:09:08.796Z,90.70
2022-09-02T05:09:29.378Z,90.50
2022-09-02T05:09:50.469Z,90.39
2022-09-02T05:10:11.299Z,90.39
2022-09-02T05:10:31.884Z,90.39
2022-09-02T05:10:52.469Z,90.30
2022-09-02T05:11:13.052Z,90.39
2022-09-02T05:11:33.634Z,90.39
2022-09-02T05:11:54.216Z,90.39
2022-09-02T05:12:14.798Z,90.30
2022-09-02T05:12:35.526Z,90.39
2022-09-02T05:12:56.090Z,90.50
2022-09-02T05:13:16.670Z,90.60
2022-09-02T05:13:39.264Z,90.60
2022-09-02T05:13:59.843Z,90.70
2022-09-02T05:14:20.432Z,90.81
2022-09-02T05:14:41.012Z,90.91
2022-09-02T05:15:01.594Z,91.01
2022-09-02T05:15:22.176Z,90.81
2022-09-02T05:15:42.779Z,90.81
2022-09-02T05:16:03.429Z,90.91
2022-09-02T05:16:24.087Z,91.01
2022-09-02T05:16:44.649Z,91.22
2022-09-02T05:17:07.693Z,91.11
2022-09-02T05:17:28.561Z,91.11
2022-09-02T05:17:49.160Z,91.11
2022-09-02T05:18:09.746Z,91.31
2022-09-02T05:18:30.336Z,91.42
2022-09-02T05:18:50.915Z,91.42
2022-09-02T05:19:11.499Z,91.31
2022-09-02T05:19:34.163Z,91.31
2022-09-02T05:19:54.746Z,91.42
2022-09-02T05:20:15.328Z,91.52
2022-09-02T05:20:35.726Z,91.52
2022-09-02T05:20:56.303Z,91.52
2022-09-02T05:21:16.888Z,91.63
2022-09-02T05:21:37.471Z,91.52
2022-09-02T05:21:58.056Z,91.52
2022-09-02T05:22:18.635Z,91.73
2022-09-02T05:22:39.214Z,91.83
2022-09-02T05:22:59.814Z,91.73
2022-09-02T05:23:20.471Z,91.73
2022-09-02T05:23:41.017Z,91.73
2022-09-02T05:24:01.595Z,92.03
2022-09-02T05:24:26.471Z,92.24
2022-09-02T05:24:42.285Z,92.14
2022-09-02T05:25:02.865Z,92.14
2022-09-02T05:25:23.449Z,91.93
2022-09-02T05:25:44.035Z,91.93
2022-09-02T05:26:04.610Z,92.14
2022-09-02T05:26:25.188Z,92.14
2022-09-02T05:26:45.774Z,92.03
2022-09-02T05:27:06.352Z,91.83
2022-09-02T05:27:26.960Z,91.83
2022-09-02T05:27:47.529Z,91.83
2022-09-02T05:28:07.935Z,91.73
2022-09-02T05:28:28.514Z,91.52
2022-09-02T05:28:49.101Z,91.42
2022-09-02T05:29:09.680Z,91.63
2022-09-02T05:29:30.266Z,91.83
2022-09-02T05:29:50.846Z,91.73
2022-09-02T05:30:11.433Z,91.73
2022-09-02T05:30:32.015Z,91.83
2022-09-02T05:30:52.715Z,91.73
2022-09-02T05:31:13.324Z,91.52
2022-09-02T05:31:33.947Z,91.63
2022-09-02T05:31:54.529Z,91.58
2022-09-02T05:32:15.110Z,91.48
2022-09-02T05:32:38.031Z,91.38
2022-09-02T05:32:58.719Z,91.38
2022-09-02T05:33:19.312Z,91.27
2022-09-02T05:33:39.896Z,91.38
2022-09-02T05:34:00.605Z,91.48
2022-09-02T05:34:21.190Z,91.58
2022-09-02T05:34:41.786Z,91.58
2022-09-02T05:35:02.360Z,91.58
2022-09-02T05:35:22.943Z,91.69
2022-09-02T05:35:45.474Z,91.27
2022-09-02T05:36:06.520Z,90.97
2022-09-02T05:36:27.107Z,91.17
2022-09-02T05:36:47.686Z,91.17
2022-09-02T05:37:08.271Z,91.17
2022-09-02T05:37:28.851Z,90.86
2022-09-02T05:37:49.436Z,90.77
2022-09-02T05:38:10.034Z,90.66
2022-09-02T05:38:30.623Z,90.56
2022-09-02T05:38:51.200Z,90.77
2022-09-02T05:39:11.599Z,90.97
2022-09-02T05:39:32.180Z,90.97
2022-09-02T05:39:52.764Z,90.86
2022-09-02T05:40:14.899Z,90.97
2022-09-02T05:40:35.701Z,90.97
2022-09-02T05:40:56.150Z,90.97
2022-09-02T05:41:16.764Z,90.77
2022-09-02T05:41:37.352Z,90.77
2022-09-02T05:41:57.934Z,90.77
2022-09-02T05:42:18.518Z,90.86
2022-09-02T05:42:39.108Z,90.77
2022-09-02T05:42:59.500Z,90.66
2022-09-02T05:43:20.218Z,90.66
2022-09-02T05:43:40.787Z,90.66
2022-09-02T05:44:03.464Z,90.56
2022-09-02T05:44:24.273Z,90.66
2022-09-02T05:44:44.861Z,90.56
2022-09-02T05:45:05.448Z,90.56
2022-09-02T05:45:26.032Z,90.56
2022-09-02T05:45:46.652Z,90.56
2022-09-02T05:46:07.218Z,90.56
2022-09-02T05:46:27.651Z,90.66
2022-09-02T05:46:49.141Z,90.77
2022-09-02T05:47:08.599Z,90.77
2022-09-02T05:47:29.179Z,90.77
2022-09-02T05:47:50.273Z,90.66
2022-09-02T05:48:10.869Z,90.66
2022-09-02T05:48:31.453Z,90.77
2022-09-02T05:48:52.033Z,90.86
2022-09-02T05:49:12.612Z,90.97
2022-09-02T05:49:33.196Z,90.97
2022-09-02T05:49:53.789Z,90.86
2022-09-02T05:50:14.438Z,90.97
2022-09-02T05:50:34.988Z,91.07
2022-09-02T05:50:58.487Z,91.07
2022-09-02T05:51:19.177Z,91.17
2022-09-02T05:51:39.755Z,91.07
2022-09-02T05:52:00.336Z,91.07
2022-09-02T05:52:20.922Z,91.17
2022-09-02T05:52:41.501Z,91.27
2022-09-02T05:53:02.098Z,91.38
2022-09-02T05:53:22.698Z,91.38
2022-09-02T05:53:43.270Z,91.27
2022-09-02T05:54:03.856Z,91.27
2022-09-02T05:54:24.437Z,91.38
2022-09-02T05:54:45.023Z,91.48
2022-09-02T05:55:05.601Z,91.58
2022-09-02T05:55:26.000Z,91.58
2022-09-02T05:55:46.582Z,91.69
2022-09-02T05:56:07.163Z,91.89
2022-09-02T05:56:27.750Z,91.89
2022-09-02T05:56:48.327Z,91.78
2022-09-02T05:57:08.726Z,91.78
2022-09-02T05:57:29.309Z,91.89
2022-09-02T05:57:49.897Z,91.69
2022-09-02T05:58:10.491Z,91.58
2022-09-02T05:58:31.080Z,91.58
2022-09-02T05:58:51.660Z,91.58
2022-09-02T05:59:12.243Z,91.58
2022-09-02T05:59:32.821Z,91.78
2022-09-02T05:59:53.407Z,91.85
2022-09-02T06:00:17.661Z,92.05
2022-09-02T06:00:38.824Z,91.95
2022-09-02T06:00:59.413Z,91.95
2022-09-02T06:01:20.195Z,91.74
2022-09-02T06:01:40.936Z,91.54
2022-09-02T06:02:01.551Z,91.54
2022-09-02T06:02:22.277Z,91.54
2022-09-02T06:02:43.002Z,91.44
2022-09-02T06:03:03.666Z,91.44
2022-09-02T06:03:24.375Z,91.23
2022-09-02T06:03:45.010Z,90.92
2022-09-02T06:04:05.592Z,90.92
2022-09-02T06:04:26.172Z,90.92
2022-09-02T06:04:46.752Z,91.03
2022-09-02T06:05:07.330Z,91.13
2022-09-02T06:05:27.913Z,91.13
2022-09-02T06:05:48.495Z,90.92
2022-09-02T06:06:09.095Z,90.92
2022-09-02T06:06:29.679Z,91.03
2022-09-02T06:06:50.266Z,90.92
2022-09-02T06:07:11.726Z,90.92
2022-09-02T06:07:31.055Z,90.92
2022-09-02T06:07:51.634Z,91.03
2022-09-02T06:08:12.238Z,90.92
2022-09-02T06:08:32.815Z,90.92
2022-09-02T06:08:53.397Z,91.23
2022-09-02T06:09:13.981Z,91.23
2022-09-02T06:09:34.563Z,91.03
2022-09-02T06:09:55.148Z,90.82
2022-09-02T06:10:15.731Z,90.82
2022-09-02T06:10:36.121Z,90.82
2022-09-02T06:10:56.708Z,90.88
2022-09-02T06:11:17.291Z,91.09
2022-09-02T06:11:37.875Z,91.09
2022-09-02T06:11:58.456Z,91.29
2022-09-02T06:12:18.851Z,91.09
2022-09-02T06:12:42.625Z,90.88
2022-09-02T06:12:59.832Z,90.99
2022-09-02T06:13:20.494Z,90.88
2022-09-02T06:13:41.074Z,90.99
2022-09-02T06:14:01.660Z,91.09
2022-09-02T06:14:22.244Z,90.99
2022-09-02T06:14:42.822Z,90.88
2022-09-02T06:15:03.401Z,90.68
2022-09-02T06:15:23.984Z,90.47
2022-09-02T06:15:44.659Z,90.27
2022-09-02T06:16:05.277Z,90.37
2022-09-02T06:16:25.919Z,90.47
2022-09-02T06:16:46.488Z,90.58
2022-09-02T06:17:07.049Z,90.64
2022-09-02T06:17:27.632Z,90.74
2022-09-02T06:17:48.930Z,90.53
2022-09-02T06:18:09.527Z,90.33
2022-09-02T06:18:29.924Z,90.43
2022-09-02T06:18:50.492Z,90.43
2022-09-02T06:19:11.125Z,90.33
2022-09-02T06:19:31.664Z,90.53
2022-09-02T06:19:52.694Z,90.43
2022-09-02T06:20:13.513Z,89.88
2022-09-02T06:20:34.105Z,89.58
2022-09-02T06:20:54.680Z,89.58
2022-09-02T06:21:15.080Z,89.37
2022-09-02T06:21:35.670Z,89.17
2022-09-02T06:21:56.255Z,88.96
2022-09-02T06:22:16.831Z,88.96
2022-09-02T06:22:37.227Z,88.96
2022-09-02T06:22:57.806Z,88.96
2022-09-02T06:23:18.327Z,89.17
2022-09-02T06:23:38.925Z,89.17
2022-09-02T06:23:59.513Z,89.06
2022-09-02T06:24:20.098Z,89.06
2022-09-02T06:24:40.678Z,89.06
2022-09-02T06:25:01.253Z,89.17
2022-09-02T06:25:21.838Z,89.17
2022-09-02T06:25:42.420Z,89.47
2022-09-02T06:26:03.024Z,89.47
2022-09-02T06:26:23.592Z,89.26
2022-09-02T06:26:44.172Z,89.17
2022-09-02T06:27:04.753Z,89.26
2022-09-02T06:27:25.337Z,89.26
2022-09-02T06:27:45.726Z,89.12
2022-09-02T06:28:07.454Z,89.12
2022-09-02T06:28:28.109Z,89.02
2022-09-02T06:28:48.696Z,89.02
2022-09-02T06:29:09.279Z,89.23
2022-09-02T06:29:29.867Z,89.43
2022-09-02T06:29:50.446Z,89.63
2022-09-02T06:30:11.030Z,89.63
2022-09-02T06:30:31.611Z,89.23
2022-09-02T06:30:52.236Z,88.92